UTA802 UTDD-UUWW
Flight info
| Callsign | UTA802 |
|---|---|
| Flight time | N/A |
| Altitude | 38000 |
| Route | AKVEZ A362 BUTRA Z407 DAKLI L162 ODIVA M161 LEDGI M166 ARISA L736 OLOPI |
| Aircraft | B762/H-SDFGIRWY/S |
Departure
| Time | 2026-04-27 12:34 |
|---|---|
| Airport | Dushanbe International Airport (UTDD) |
Arrival
| Time | N/A |
|---|---|
| Airport | Vnukovo International Airport (UUWW) |
| Time | Latitude | Longitude | Altitude | Speed | Heading |
|---|---|---|---|---|---|
| 2026-04-27 12:18 | 38.54792 | 68.81417 | 2613 ft | 0 kts | 0° |
| 2026-04-27 12:24 | 38.54778 | 68.81417 | 2613 ft | 2 kts | 360° |
| 2026-04-27 12:24 | 38.54763 | 68.81417 | 2613 ft | 2 kts | 0° |
| 2026-04-27 12:24 | 38.54748 | 68.81417 | 2613 ft | 2 kts | 360° |
| 2026-04-27 12:24 | 38.54733 | 68.81417 | 2613 ft | 2 kts | 0° |
| 2026-04-27 12:25 | 38.54723 | 68.81417 | 2613 ft | 1 kts | 0° |
| 2026-04-27 12:25 | 38.54709 | 68.81419 | 2613 ft | 2 kts | 335° |
| 2026-04-27 12:25 | 38.54696 | 68.81429 | 2613 ft | 2 kts | 314° |
| 2026-04-27 12:25 | 38.54688 | 68.81445 | 2613 ft | 2 kts | 292° |
| 2026-04-27 12:26 | 38.54684 | 68.81461 | 2613 ft | 0 kts | 272° |
| 2026-04-27 12:26 | 38.54684 | 68.81470 | 2613 ft | 0 kts | 269° |
| 2026-04-27 12:28 | 38.54684 | 68.81469 | 2612 ft | 0 kts | 269° |
| 2026-04-27 12:28 | 38.54684 | 68.81445 | 2613 ft | 4 kts | 270° |
| 2026-04-27 12:29 | 38.54686 | 68.81241 | 2612 ft | 6 kts | 272° |
| 2026-04-27 12:29 | 38.54686 | 68.81184 | 2612 ft | 6 kts | 270° |
| 2026-04-27 12:29 | 38.54685 | 68.81121 | 2612 ft | 7 kts | 269° |
| 2026-04-27 12:29 | 38.54683 | 68.81058 | 2612 ft | 7 kts | 266° |
| 2026-04-27 12:30 | 38.54683 | 68.80993 | 2612 ft | 7 kts | 270° |
| 2026-04-27 12:30 | 38.54685 | 68.80926 | 2612 ft | 7 kts | 272° |
| 2026-04-27 12:30 | 38.54687 | 68.80854 | 2612 ft | 8 kts | 270° |
| 2026-04-27 12:30 | 38.54688 | 68.80774 | 2612 ft | 9 kts | 272° |
| 2026-04-27 12:31 | 38.54686 | 68.80689 | 2612 ft | 8 kts | 245° |
| 2026-04-27 12:31 | 38.54642 | 68.80669 | 2612 ft | 6 kts | 182° |
| 2026-04-27 12:31 | 38.54595 | 68.80668 | 2612 ft | 7 kts | 180° |
| 2026-04-27 12:31 | 38.54537 | 68.80667 | 2611 ft | 9 kts | 181° |
| 2026-04-27 12:32 | 38.54460 | 68.80666 | 2611 ft | 11 kts | 181° |
| 2026-04-27 12:32 | 38.54391 | 68.80675 | 2610 ft | 8 kts | 150° |
| 2026-04-27 12:32 | 38.54373 | 68.80726 | 2610 ft | 5 kts | 91° |
| 2026-04-27 12:32 | 38.54373 | 68.80823 | 2610 ft | 26 kts | 89° |
| 2026-04-27 12:33 | 38.54372 | 68.81233 | 2611 ft | 66 kts | 90° |
| 2026-04-27 12:33 | 38.54371 | 68.81989 | 2611 ft | 102 kts | 90° |
| 2026-04-27 12:33 | 38.54368 | 68.83031 | 2612 ft | 133 kts | 91° |
| 2026-04-27 12:33 | 38.54361 | 68.84333 | 2614 ft | 159 kts | 91° |
| 2026-04-27 12:34 | 38.54345 | 68.85782 | 2725 ft | 168 kts | 94° |
| 2026-04-27 12:34 | 38.54275 | 68.87338 | 2862 ft | 183 kts | 96° |
| 2026-04-27 12:34 | 38.54223 | 68.88989 | 3164 ft | 187 kts | 88° |
| 2026-04-27 12:34 | 38.54304 | 68.90618 | 3567 ft | 185 kts | 88° |
| 2026-04-27 12:35 | 38.54348 | 68.92256 | 3897 ft | 189 kts | 90° |
| 2026-04-27 12:35 | 38.54370 | 68.94003 | 4069 ft | 205 kts | 90° |
| 2026-04-27 12:35 | 38.54377 | 68.95876 | 4299 ft | 220 kts | 90° |
| 2026-04-27 12:35 | 38.54375 | 68.97907 | 4605 ft | 234 kts | 90° |
| 2026-04-27 12:36 | 38.54366 | 69.00018 | 4959 ft | 246 kts | 91° |
| 2026-04-27 12:36 | 38.54349 | 69.02278 | 5276 ft | 261 kts | 90° |
| 2026-04-27 12:36 | 38.54332 | 69.04653 | 5662 ft | 274 kts | 90° |
| 2026-04-27 12:36 | 38.54145 | 69.07067 | 6305 ft | 276 kts | 107° |
| 2026-04-27 12:37 | 38.53175 | 69.09156 | 6928 ft | 280 kts | 134° |
| 2026-04-27 12:37 | 38.51535 | 69.10445 | 7552 ft | 285 kts | 162° |
| 2026-04-27 12:37 | 38.49553 | 69.10768 | 8205 ft | 287 kts | 177° |
| 2026-04-27 12:37 | 38.47580 | 69.10846 | 8858 ft | 290 kts | 176° |
| 2026-04-27 12:38 | 38.45554 | 69.10903 | 9557 ft | 291 kts | 178° |
| 2026-04-27 12:38 | 38.43533 | 69.10934 | 10246 ft | 294 kts | 178° |
| 2026-04-27 12:38 | 38.41455 | 69.10951 | 10745 ft | 304 kts | 179° |
| 2026-04-27 12:38 | 38.39328 | 69.10580 | 11022 ft | 323 kts | 196° |
| 2026-04-27 12:39 | 38.37227 | 69.09274 | 11344 ft | 342 kts | 214° |
| 2026-04-27 12:39 | 38.35524 | 69.07145 | 12020 ft | 348 kts | 233° |
| 2026-04-27 12:39 | 38.34394 | 69.04456 | 12756 ft | 352 kts | 250° |
| 2026-04-27 12:39 | 38.33922 | 69.01395 | 13460 ft | 355 kts | 267° |
| 2026-04-27 12:40 | 38.34158 | 68.98302 | 14194 ft | 357 kts | 281° |
| 2026-04-27 12:40 | 38.34597 | 68.95194 | 14880 ft | 360 kts | 275° |
| 2026-04-27 12:40 | 38.34804 | 68.92014 | 15596 ft | 362 kts | 273° |
| 2026-04-27 12:40 | 38.35009 | 68.88799 | 16282 ft | 366 kts | 278° |
| 2026-04-27 12:41 | 38.35779 | 68.85715 | 16960 ft | 371 kts | 295° |
| 2026-04-27 12:41 | 38.37209 | 68.82996 | 17619 ft | 376 kts | 310° |
| 2026-04-27 12:41 | 38.39052 | 68.80666 | 18283 ft | 380 kts | 314° |
| 2026-04-27 12:41 | 38.40955 | 68.78311 | 18977 ft | 382 kts | 314° |
| 2026-04-27 12:42 | 38.42877 | 68.75977 | 19678 ft | 384 kts | 314° |
| 2026-04-27 12:42 | 38.44816 | 68.73631 | 20355 ft | 386 kts | 315° |
| 2026-04-27 12:42 | 38.46767 | 68.71279 | 21008 ft | 388 kts | 315° |
| 2026-04-27 12:42 | 38.48742 | 68.68903 | 21136 ft | 399 kts | 315° |
| 2026-04-27 12:43 | 38.50768 | 68.66466 | 21111 ft | 399 kts | 315° |
| 2026-04-27 12:43 | 38.52760 | 68.64070 | 21111 ft | 391 kts | 315° |
| 2026-04-27 12:43 | 38.54835 | 68.61850 | 21129 ft | 386 kts | 324° |
| 2026-04-27 12:43 | 38.57100 | 68.60022 | 21211 ft | 384 kts | 325° |
| 2026-04-27 12:44 | 38.59376 | 68.58167 | 21212 ft | 393 kts | 326° |
| 2026-04-27 12:44 | 38.61687 | 68.56297 | 21244 ft | 396 kts | 326° |
| 2026-04-27 12:44 | 38.64016 | 68.54414 | 21275 ft | 395 kts | 326° |
| 2026-04-27 12:44 | 38.66334 | 68.52541 | 21309 ft | 393 kts | 326° |
| 2026-04-27 12:45 | 38.68639 | 68.50678 | 21374 ft | 392 kts | 326° |
| 2026-04-27 12:45 | 38.70933 | 68.48823 | 21432 ft | 392 kts | 326° |
| 2026-04-27 12:45 | 38.73250 | 68.46948 | 21425 ft | 395 kts | 326° |
| 2026-04-27 12:45 | 38.75565 | 68.45074 | 21430 ft | 395 kts | 326° |
| 2026-04-27 12:46 | 38.77875 | 68.43201 | 21444 ft | 393 kts | 326° |
| 2026-04-27 12:46 | 38.80193 | 68.41323 | 21454 ft | 392 kts | 326° |
| 2026-04-27 12:46 | 38.82471 | 68.39474 | 21496 ft | 391 kts | 326° |
| 2026-04-27 12:46 | 38.84781 | 68.37598 | 21499 ft | 393 kts | 326° |
| 2026-04-27 12:47 | 38.87098 | 68.35715 | 21502 ft | 394 kts | 326° |
| 2026-04-27 12:47 | 38.89401 | 68.33842 | 21493 ft | 394 kts | 326° |
| 2026-04-27 12:47 | 38.91665 | 68.31841 | 21484 ft | 393 kts | 317° |
| 2026-04-27 12:47 | 38.93473 | 68.29237 | 21882 ft | 394 kts | 303° |
| 2026-04-27 12:48 | 38.94986 | 68.26368 | 22617 ft | 393 kts | 302° |
| 2026-04-27 12:48 | 38.96523 | 68.23457 | 23207 ft | 396 kts | 301° |
| 2026-04-27 12:48 | 38.98053 | 68.20521 | 23803 ft | 399 kts | 301° |
| 2026-04-27 12:48 | 38.99585 | 68.17564 | 24426 ft | 401 kts | 301° |
| 2026-04-27 12:49 | 39.01125 | 68.14580 | 25028 ft | 403 kts | 301° |
| 2026-04-27 12:49 | 39.02668 | 68.11584 | 25596 ft | 405 kts | 301° |
| 2026-04-27 12:49 | 39.04225 | 68.08557 | 26100 ft | 409 kts | 300° |
| 2026-04-27 12:49 | 39.05796 | 68.05496 | 26732 ft | 409 kts | 300° |
| 2026-04-27 12:50 | 39.07361 | 68.02444 | 27244 ft | 411 kts | 300° |
| 2026-04-27 12:50 | 39.08939 | 67.99360 | 27680 ft | 416 kts | 300° |
| 2026-04-27 12:50 | 39.10507 | 67.96295 | 28209 ft | 417 kts | 300° |
| 2026-04-27 12:50 | 39.12113 | 67.93153 | 28710 ft | 419 kts | 300° |
| 2026-04-27 12:51 | 39.13709 | 67.90026 | 29126 ft | 422 kts | 300° |
| 2026-04-27 12:51 | 39.15324 | 67.86858 | 29587 ft | 424 kts | 300° |
| 2026-04-27 12:51 | 39.16939 | 67.83689 | 30046 ft | 426 kts | 299° |
| 2026-04-27 12:51 | 39.18565 | 67.80493 | 30384 ft | 431 kts | 299° |
| 2026-04-27 12:52 | 39.20206 | 67.77268 | 30885 ft | 431 kts | 299° |
| 2026-04-27 12:52 | 39.21856 | 67.74017 | 31231 ft | 435 kts | 299° |
| 2026-04-27 12:52 | 39.23490 | 67.70801 | 31799 ft | 433 kts | 299° |
| 2026-04-27 12:52 | 39.25136 | 67.67553 | 32294 ft | 432 kts | 299° |
| 2026-04-27 12:53 | 39.28397 | 67.61113 | 33347 ft | 428 kts | 298° |
| 2026-04-27 12:53 | 39.30014 | 67.57911 | 33808 ft | 427 kts | 298° |
| 2026-04-27 12:53 | 39.31639 | 67.54692 | 34232 ft | 426 kts | 298° |
| 2026-04-27 12:54 | 39.33235 | 67.51527 | 34608 ft | 425 kts | 298° |
| 2026-04-27 12:54 | 39.34819 | 67.48312 | 34967 ft | 421 kts | 295° |
| 2026-04-27 12:54 | 39.36070 | 67.44952 | 35259 ft | 417 kts | 289° |
| 2026-04-27 12:54 | 39.37209 | 67.41503 | 35578 ft | 417 kts | 289° |
| 2026-04-27 12:55 | 39.38339 | 67.38094 | 35911 ft | 416 kts | 289° |
| 2026-04-27 12:55 | 39.39470 | 67.34653 | 36254 ft | 415 kts | 288° |
| 2026-04-27 12:55 | 39.40594 | 67.31220 | 36652 ft | 414 kts | 288° |
| 2026-04-27 12:55 | 39.41792 | 67.27839 | 36977 ft | 416 kts | 294° |
| 2026-04-27 12:56 | 39.43387 | 67.24747 | 37273 ft | 422 kts | 304° |
| 2026-04-27 12:56 | 39.45454 | 67.21986 | 37633 ft | 428 kts | 314° |
| 2026-04-27 12:56 | 39.47773 | 67.19619 | 37939 ft | 429 kts | 317° |
| 2026-04-27 12:56 | 39.50134 | 67.17271 | 38022 ft | 424 kts | 317° |
| 2026-04-27 12:57 | 39.54793 | 67.12656 | 37997 ft | 425 kts | 317° |
| 2026-04-27 12:57 | 39.59489 | 67.08022 | 37993 ft | 428 kts | 317° |
| 2026-04-27 12:58 | 39.64250 | 67.03329 | 37976 ft | 428 kts | 317° |
| 2026-04-27 12:58 | 39.68963 | 66.98678 | 37969 ft | 427 kts | 317° |
| 2026-04-27 12:59 | 39.73541 | 66.93813 | 37976 ft | 426 kts | 314° |
| 2026-04-27 12:59 | 39.78055 | 66.88829 | 37976 ft | 429 kts | 315° |
| 2026-04-27 13:00 | 39.82573 | 66.83839 | 37968 ft | 428 kts | 315° |
| 2026-04-27 13:00 | 39.87098 | 66.78832 | 37973 ft | 428 kts | 315° |
| 2026-04-27 13:01 | 39.91622 | 66.73819 | 37972 ft | 428 kts | 315° |
| 2026-04-27 13:01 | 39.96144 | 66.68801 | 37964 ft | 427 kts | 315° |
| 2026-04-27 13:02 | 40.00669 | 66.63769 | 37971 ft | 427 kts | 315° |
| 2026-04-27 13:02 | 40.05175 | 66.58749 | 37981 ft | 428 kts | 315° |
| 2026-04-27 13:03 | 40.09687 | 66.53713 | 37985 ft | 428 kts | 315° |
| 2026-04-27 13:03 | 40.14208 | 66.48660 | 37992 ft | 427 kts | 315° |
| 2026-04-27 13:04 | 40.18710 | 66.43619 | 37992 ft | 429 kts | 315° |
| 2026-04-27 13:04 | 40.23239 | 66.38538 | 38004 ft | 430 kts | 315° |
| 2026-04-27 13:05 | 40.27939 | 66.33758 | 38034 ft | 433 kts | 321° |
| 2026-04-27 13:05 | 40.32916 | 66.29295 | 38007 ft | 434 kts | 321° |
| 2026-04-27 13:06 | 40.37894 | 66.24834 | 38007 ft | 433 kts | 321° |
| 2026-04-27 13:06 | 40.42866 | 66.20377 | 37998 ft | 433 kts | 321° |
| 2026-04-27 13:07 | 40.47793 | 66.15923 | 37989 ft | 433 kts | 321° |
| 2026-04-27 13:07 | 40.52771 | 66.11396 | 37976 ft | 434 kts | 321° |
| 2026-04-27 13:08 | 40.57718 | 66.06889 | 37985 ft | 434 kts | 321° |
| 2026-04-27 13:08 | 40.62664 | 66.02375 | 37964 ft | 434 kts | 321° |
| 2026-04-27 13:09 | 40.67594 | 65.97866 | 37965 ft | 434 kts | 321° |
| 2026-04-27 13:09 | 40.72552 | 65.93326 | 37967 ft | 435 kts | 321° |
| 2026-04-27 13:10 | 40.77498 | 65.88787 | 37961 ft | 435 kts | 321° |
| 2026-04-27 13:10 | 40.82455 | 65.84229 | 37963 ft | 435 kts | 321° |
| 2026-04-27 13:11 | 40.87413 | 65.79663 | 37963 ft | 435 kts | 321° |
| 2026-04-27 13:11 | 40.92354 | 65.75103 | 37958 ft | 434 kts | 321° |
| 2026-04-27 13:12 | 40.97295 | 65.70534 | 37966 ft | 435 kts | 321° |
| 2026-04-27 13:12 | 41.02275 | 65.65922 | 37964 ft | 436 kts | 321° |
| 2026-04-27 13:13 | 41.07206 | 65.61346 | 37959 ft | 434 kts | 321° |
| 2026-04-27 13:13 | 41.12120 | 65.56744 | 37964 ft | 433 kts | 321° |
| 2026-04-27 13:14 | 41.17040 | 65.52120 | 37971 ft | 435 kts | 321° |
| 2026-04-27 13:14 | 41.21959 | 65.47490 | 37972 ft | 436 kts | 321° |
| 2026-04-27 13:15 | 41.26872 | 65.42857 | 37982 ft | 435 kts | 321° |
| 2026-04-27 13:15 | 41.31780 | 65.38219 | 37975 ft | 435 kts | 321° |
| 2026-04-27 13:16 | 41.36705 | 65.33556 | 37989 ft | 435 kts | 320° |
| 2026-04-27 13:16 | 41.41637 | 65.28879 | 37977 ft | 434 kts | 320° |
| 2026-04-27 13:17 | 41.46540 | 65.24219 | 37978 ft | 437 kts | 320° |
| 2026-04-27 13:17 | 41.51498 | 65.19498 | 37991 ft | 439 kts | 320° |
| 2026-04-27 13:18 | 41.56483 | 65.14743 | 37987 ft | 443 kts | 320° |
| 2026-04-27 13:18 | 41.61478 | 65.09969 | 37995 ft | 446 kts | 320° |
| 2026-04-27 13:19 | 41.66515 | 65.05146 | 37988 ft | 449 kts | 320° |
| 2026-04-27 13:19 | 41.71610 | 65.00258 | 37990 ft | 451 kts | 320° |
| 2026-04-27 13:20 | 41.76691 | 64.95373 | 37993 ft | 454 kts | 320° |
| 2026-04-27 13:20 | 41.81852 | 64.90401 | 37998 ft | 457 kts | 320° |
| 2026-04-27 13:21 | 41.87019 | 64.85413 | 37994 ft | 459 kts | 320° |
| 2026-04-27 13:21 | 41.92160 | 64.80441 | 37993 ft | 457 kts | 320° |
| 2026-04-27 13:22 | 41.97292 | 64.75467 | 37995 ft | 456 kts | 320° |
| 2026-04-27 13:22 | 42.02405 | 64.70501 | 37993 ft | 456 kts | 320° |
| 2026-04-27 13:23 | 42.07544 | 64.65499 | 37994 ft | 457 kts | 320° |
| 2026-04-27 13:23 | 42.12680 | 64.60490 | 37997 ft | 458 kts | 320° |
| 2026-04-27 13:24 | 42.17816 | 64.55472 | 38007 ft | 456 kts | 320° |
| 2026-04-27 13:24 | 42.22957 | 64.50440 | 38012 ft | 456 kts | 320° |
| 2026-04-27 13:25 | 42.28060 | 64.45431 | 38021 ft | 455 kts | 320° |
| 2026-04-27 13:25 | 42.33202 | 64.40376 | 38010 ft | 456 kts | 320° |
| 2026-04-27 13:26 | 42.38302 | 64.35351 | 38018 ft | 456 kts | 320° |
| 2026-04-27 13:26 | 42.43402 | 64.30315 | 38021 ft | 455 kts | 320° |
| 2026-04-27 13:27 | 42.48519 | 64.25253 | 38020 ft | 455 kts | 320° |